createdAt,value
2022-10-23T00:01:48.333Z,8.05
2022-10-23T00:04:22.545Z,6.38
2022-10-23T00:06:50.998Z,7.43
2022-10-23T00:09:22.042Z,8.07
2022-10-23T00:11:51.350Z,8.18
2022-10-23T00:14:23.314Z,7.60
2022-10-23T00:16:51.494Z,6.80
2022-10-23T00:19:19.678Z,6.90
2022-10-23T00:21:47.915Z,6.43
2022-10-23T00:24:16.081Z,4.85
2022-10-23T00:26:44.578Z,4.78
2022-10-23T00:29:12.777Z,4.82
2022-10-23T00:31:40.913Z,4.40
2022-10-23T00:34:09.604Z,4.07
2022-10-23T00:36:38.244Z,4.93
2022-10-23T00:39:07.280Z,4.85
2022-10-23T00:41:35.667Z,7.07
2022-10-23T00:44:18.971Z,6.35
2022-10-23T00:46:47.272Z,8.18
2022-10-23T00:49:16.563Z,7.22
2022-10-23T00:51:57.850Z,6.63
2022-10-23T00:54:30.225Z,6.45
2022-10-23T00:59:28.652Z,5.88
2022-10-23T01:01:57.310Z,5.55
2022-10-23T01:04:28.416Z,5.07
2022-10-23T01:07:13.096Z,5.82
2022-10-23T01:09:59.988Z,4.93
2022-10-23T01:12:56.239Z,5.85
2022-10-23T01:15:54.234Z,5.82
2022-10-23T01:18:29.871Z,7.20
2022-10-23T01:21:27.255Z,7.10
2022-10-23T01:24:05.286Z,6.28
2022-10-23T01:26:53.536Z,5.60
2022-10-23T01:29:35.121Z,7.07
2022-10-23T01:32:31.036Z,8.63
2022-10-23T01:35:17.496Z,8.00
2022-10-23T01:38:21.731Z,7.50
2022-10-23T01:40:58.593Z,7.45
2022-10-23T01:43:32.639Z,7.25
2022-10-23T01:46:04.866Z,8.10
2022-10-23T01:48:38.273Z,7.75
2022-10-23T01:51:10.449Z,8.35
2022-10-23T01:53:42.376Z,9.15
2022-10-23T01:56:18.533Z,7.78
2022-10-23T01:58:49.945Z,7.15
2022-10-23T02:01:22.605Z,8.00
2022-10-23T02:03:54.322Z,7.15
2022-10-23T02:06:22.762Z,7.22
2022-10-23T02:08:51.295Z,7.13
2022-10-23T02:11:22.113Z,6.57
2022-10-23T02:14:04.442Z,7.13
2022-10-23T02:16:40.188Z,6.32
2022-10-23T02:19:20.264Z,5.65
2022-10-23T02:22:24.432Z,6.03
2022-10-23T02:25:20.451Z,6.13
2022-10-23T02:27:55.374Z,6.18
2022-10-23T02:30:28.685Z,6.93
2022-10-23T02:33:09.864Z,6.35
2022-10-23T02:35:38.240Z,7.93
2022-10-23T02:38:41.404Z,6.53
2022-10-23T02:41:16.671Z,7.28
2022-10-23T02:44:13.324Z,6.50
2022-10-23T02:47:09.705Z,7.68
2022-10-23T02:49:40.978Z,8.35
2022-10-23T02:52:21.143Z,8.18
2022-10-23T02:55:41.947Z,8.30
2022-10-23T02:58:16.905Z,7.30
2022-10-23T03:00:51.586Z,8.73
2022-10-23T03:03:33.162Z,7.70
2022-10-23T03:06:01.464Z,9.15
2022-10-23T03:08:29.503Z,8.13
2022-10-23T03:10:57.850Z,8.00
2022-10-23T03:13:29.185Z,7.13
2022-10-23T03:15:57.411Z,8.13
2022-10-23T03:18:27.760Z,8.07
2022-10-23T03:23:28.139Z,7.90
2022-10-23T03:25:56.522Z,9.40
2022-10-23T03:28:41.488Z,9.02
2022-10-23T03:31:09.903Z,8.65
2022-10-23T03:33:40.136Z,7.22
2022-10-23T03:36:11.569Z,8.43
2022-10-23T03:38:41.241Z,8.95
2022-10-23T03:41:11.682Z,7.90
2022-10-23T03:43:39.824Z,7.68
2022-10-23T03:46:07.971Z,10.07
2022-10-23T03:48:36.725Z,8.25
2022-10-23T03:51:06.627Z,7.65
2022-10-23T03:53:35.434Z,9.10
2022-10-23T03:56:05.342Z,8.38
2022-10-23T03:58:35.122Z,8.73
2022-10-23T04:01:03.441Z,8.80
2022-10-23T04:03:31.683Z,9.20
2022-10-23T04:05:59.739Z,6.88
2022-10-23T04:08:28.148Z,7.93
2022-10-23T04:10:56.804Z,7.63
2022-10-23T04:13:33.741Z,8.30
2022-10-23T04:16:02.125Z,7.47
2022-10-23T04:18:30.185Z,7.18
2022-10-23T04:20:58.464Z,7.25
2022-10-23T04:23:26.633Z,9.68
2022-10-23T04:25:58.968Z,8.32
2022-10-23T04:28:28.377Z,8.20
2022-10-23T04:30:56.794Z,8.70
2022-10-23T04:33:25.504Z,8.70
2022-10-23T04:35:53.692Z,7.63
2022-10-23T04:38:21.926Z,9.13
2022-10-23T04:40:51.173Z,9.18
2022-10-23T04:43:23.452Z,7.20
2022-10-23T04:45:51.724Z,8.00
2022-10-23T04:48:23.371Z,8.23
2022-10-23T04:51:26.228Z,9.90
2022-10-23T04:53:59.349Z,10.20
2022-10-23T04:56:47.744Z,11.02
2022-10-23T04:59:19.360Z,9.45
2022-10-23T05:01:48.344Z,8.90
2022-10-23T05:04:17.171Z,9.25
2022-10-23T05:07:03.519Z,9.27
2022-10-23T05:09:42.718Z,9.40
2022-10-23T05:12:36.711Z,7.68
2022-10-23T05:15:05.563Z,8.73
2022-10-23T05:17:38.927Z,8.18
2022-10-23T05:20:12.592Z,7.63
2022-10-23T05:22:43.199Z,7.65
2022-10-23T05:25:13.942Z,7.60
2022-10-23T05:27:49.283Z,8.05
2022-10-23T05:30:18.100Z,7.68
2022-10-23T05:32:46.594Z,7.68
2022-10-23T05:35:22.637Z,9.23
2022-10-23T05:37:54.253Z,10.10
2022-10-23T05:40:25.677Z,8.65
2022-10-23T05:43:02.075Z,9.73
2022-10-23T05:45:46.191Z,9.23
2022-10-23T05:48:35.023Z,7.88
2022-10-23T05:51:11.675Z,9.18
2022-10-23T05:53:51.153Z,8.25
2022-10-23T05:56:33.356Z,9.07
2022-10-23T05:59:11.144Z,8.98
2022-10-23T06:02:05.193Z,10.02
2022-10-23T06:04:48.004Z,9.63
2022-10-23T06:07:35.744Z,8.75
2022-10-23T06:10:07.460Z,7.97
2022-10-23T06:12:40.577Z,7.95
2022-10-23T06:15:13.074Z,8.80
2022-10-23T06:18:03.120Z,10.25
2022-10-23T06:20:39.182Z,10.15
2022-10-23T06:23:12.911Z,8.48
2022-10-23T06:26:01.428Z,10.35
2022-10-23T06:28:40.273Z,10.27
2022-10-23T06:31:15.771Z,8.88
2022-10-23T06:33:44.021Z,7.82
2022-10-23T06:36:13.466Z,9.18
2022-10-23T06:38:43.315Z,9.38
2022-10-23T06:41:20.404Z,8.90
2022-10-23T06:43:54.339Z,8.77
2022-10-23T06:46:28.910Z,10.30
2022-10-23T06:49:28.753Z,9.60
2022-10-23T06:51:59.532Z,8.73
2022-10-23T06:54:27.882Z,9.95
2022-10-23T06:57:21.255Z,8.57
2022-10-23T06:59:50.645Z,8.55
2022-10-23T07:02:19.467Z,9.35
2022-10-23T07:04:47.770Z,9.05
2022-10-23T07:07:20.314Z,7.28
2022-10-23T07:09:50.333Z,9.93
2022-10-23T07:12:24.267Z,10.00
2022-10-23T07:15:06.197Z,8.77
2022-10-23T07:17:34.633Z,7.40
2022-10-23T07:20:04.202Z,7.45
2022-10-23T07:22:32.482Z,8.18
2022-10-23T07:25:10.716Z,8.50
2022-10-23T07:27:40.110Z,8.95
2022-10-23T07:30:11.121Z,8.50
2022-10-23T07:32:48.130Z,9.45
2022-10-23T07:35:37.183Z,7.82
2022-10-23T07:38:11.567Z,8.15
2022-10-23T07:40:42.846Z,8.17
2022-10-23T07:43:12.359Z,8.50
2022-10-23T07:45:40.491Z,9.07
2022-10-23T07:48:17.522Z,9.35
2022-10-23T07:51:11.564Z,8.60
2022-10-23T07:53:46.105Z,8.77
2022-10-23T07:56:43.526Z,9.93
2022-10-23T07:59:38.138Z,9.93
2022-10-23T08:02:15.064Z,9.70
2022-10-23T08:04:44.451Z,9.80
2022-10-23T08:07:25.106Z,10.63
2022-10-23T08:09:56.644Z,8.32
2022-10-23T08:12:26.213Z,10.35
2022-10-23T08:14:55.743Z,10.65
2022-10-23T08:17:28.208Z,11.10
2022-10-23T08:20:06.846Z,11.80
2022-10-23T08:22:40.971Z,10.50
2022-10-23T08:25:10.339Z,10.63
2022-10-23T08:27:39.646Z,10.68
2022-10-23T08:30:08.167Z,11.00
2022-10-23T08:32:36.770Z,11.52
2022-10-23T08:35:05.145Z,12.20
2022-10-23T08:37:34.504Z,11.00
2022-10-23T08:40:02.972Z,9.57
2022-10-23T08:43:06.270Z,10.07
2022-10-23T08:45:49.253Z,10.40
2022-10-23T08:48:44.845Z,8.13
2022-10-23T08:51:38.449Z,8.77
2022-10-23T08:54:17.336Z,7.93
2022-10-23T08:57:10.795Z,9.98
2022-10-23T08:59:49.276Z,6.78
2022-10-23T09:02:28.402Z,9.98
2022-10-23T09:04:59.311Z,9.38
2022-10-23T09:08:01.415Z,7.57
2022-10-23T09:10:51.530Z,7.03
2022-10-23T09:13:44.539Z,8.10
2022-10-23T09:16:53.989Z,6.53
2022-10-23T09:19:25.253Z,8.02
2022-10-23T09:21:55.051Z,6.55
2022-10-23T09:24:25.095Z,7.45
2022-10-23T09:26:55.038Z,6.78
2022-10-23T09:29:30.392Z,7.10
2022-10-23T09:32:00.782Z,7.38
2022-10-23T09:34:31.825Z,7.10
2022-10-23T09:37:03.079Z,6.37
2022-10-23T09:39:34.423Z,7.15
2022-10-23T09:42:25.372Z,7.88
2022-10-23T09:44:55.664Z,5.97
2022-10-23T09:47:26.259Z,5.93
2022-10-23T09:49:56.518Z,5.95
2022-10-23T09:52:26.194Z,7.18
2022-10-23T09:55:15.491Z,7.15
2022-10-23T09:57:45.898Z,7.43
2022-10-23T10:02:55.413Z,6.47
2022-10-23T10:05:38.057Z,7.25
2022-10-23T10:08:25.237Z,6.25
2022-10-23T10:10:53.340Z,7.45
2022-10-23T10:13:36.357Z,6.18
2022-10-23T10:16:14.685Z,6.15
2022-10-23T10:18:57.223Z,4.63
2022-10-23T10:21:28.391Z,4.57
2022-10-23T10:24:08.801Z,4.55
2022-10-23T10:26:58.397Z,5.18
2022-10-23T10:29:44.844Z,4.60
2022-10-23T10:32:31.606Z,4.25
2022-10-23T10:35:17.060Z,4.28
2022-10-23T10:37:58.795Z,4.75
2022-10-23T10:40:37.503Z,3.90
2022-10-23T10:43:42.325Z,5.28
2022-10-23T10:46:24.546Z,4.10
2022-10-23T10:49:00.291Z,4.05
2022-10-23T10:51:35.075Z,4.68
2022-10-23T10:54:26.369Z,5.53
2022-10-23T10:56:54.822Z,3.00
2022-10-23T10:59:28.855Z,4.00
2022-10-23T11:02:24.273Z,5.05
2022-10-23T11:05:19.523Z,4.32
2022-10-23T11:08:15.360Z,4.07
2022-10-23T11:10:47.197Z,5.10
2022-10-23T11:13:35.068Z,5.32
2022-10-23T11:16:10.255Z,6.22
2022-10-23T11:18:41.243Z,7.00
2022-10-23T11:21:34.411Z,6.57
2022-10-23T11:24:11.976Z,5.78
2022-10-23T11:26:58.596Z,7.30
2022-10-23T11:29:29.832Z,6.47
2022-10-23T11:32:03.992Z,5.90
2022-10-23T11:35:25.789Z,5.55
2022-10-23T11:38:27.444Z,5.07
2022-10-23T11:41:05.121Z,5.03
2022-10-23T11:43:48.266Z,6.22
2022-10-23T11:46:37.082Z,5.45
2022-10-23T11:49:19.777Z,6.68
2022-10-23T11:51:48.038Z,7.32
2022-10-23T11:54:16.109Z,5.20
2022-10-23T11:57:10.597Z,6.78
2022-10-23T11:59:50.924Z,6.28
2022-10-23T12:02:42.977Z,5.97
2022-10-23T12:05:37.030Z,6.82
2022-10-23T12:08:28.270Z,6.20
2022-10-23T12:10:56.818Z,6.30
2022-10-23T12:13:46.999Z,5.95
2022-10-23T12:16:15.340Z,5.97
2022-10-23T12:18:52.090Z,5.43
2022-10-23T12:21:26.060Z,6.85
2022-10-23T12:24:25.230Z,7.28
2022-10-23T12:27:05.338Z,6.68
2022-10-23T12:30:04.111Z,7.22
2022-10-23T12:33:00.063Z,6.05
2022-10-23T12:36:07.076Z,6.50
2022-10-23T12:38:44.247Z,6.55
2022-10-23T12:41:17.156Z,6.43
2022-10-23T12:43:55.033Z,6.50
2022-10-23T12:46:41.176Z,6.38
2022-10-23T12:49:18.918Z,6.55
2022-10-23T12:51:55.108Z,5.55
2022-10-23T12:54:23.552Z,6.70
2022-10-23T12:56:51.972Z,6.45
2022-10-23T12:59:32.527Z,7.50
2022-10-23T13:02:00.920Z,6.35
2022-10-23T13:04:35.419Z,6.68
2022-10-23T13:07:04.742Z,6.13
2022-10-23T13:09:41.649Z,6.13
2022-10-23T13:12:31.646Z,6.38
2022-10-23T13:15:14.449Z,6.00
2022-10-23T13:17:48.494Z,5.43
2022-10-23T13:20:24.825Z,6.32
2022-10-23T13:23:16.191Z,7.38
2022-10-23T13:25:53.542Z,6.15
2022-10-23T13:28:29.394Z,6.95
2022-10-23T13:31:23.960Z,6.45
2022-10-23T13:34:06.304Z,5.53
2022-10-23T13:36:38.158Z,6.90
2022-10-23T13:39:14.928Z,7.18
2022-10-23T13:41:47.407Z,5.82
2022-10-23T13:44:20.513Z,6.75
2022-10-23T13:46:48.911Z,5.60
2022-10-23T13:49:17.107Z,7.10
2022-10-23T13:51:52.658Z,5.90
2022-10-23T13:56:59.503Z,5.43
2022-10-23T13:59:27.706Z,6.53
2022-10-23T14:01:56.018Z,5.88
2022-10-23T14:04:24.299Z,7.20
2022-10-23T14:06:52.612Z,5.50
2022-10-23T14:09:20.668Z,6.57
2022-10-23T14:11:48.967Z,7.30
2022-10-23T14:14:17.118Z,7.45
2022-10-23T14:16:45.282Z,5.78
2022-10-23T14:19:13.345Z,5.53
2022-10-23T14:21:41.620Z,5.30
2022-10-23T14:24:09.772Z,5.60
2022-10-23T14:26:37.886Z,5.80
2022-10-23T14:29:09.828Z,6.10
2022-10-23T14:31:42.169Z,6.28
2022-10-23T14:34:10.334Z,6.93
2022-10-23T14:36:49.632Z,6.43
2022-10-23T14:39:24.896Z,5.35
2022-10-23T14:41:53.136Z,7.05
2022-10-23T14:44:21.229Z,6.10
2022-10-23T14:46:49.378Z,6.18
2022-10-23T14:49:17.518Z,5.45
2022-10-23T14:51:45.727Z,5.82
2022-10-23T14:54:13.930Z,6.93
2022-10-23T14:56:42.256Z,5.45
2022-10-23T14:59:10.535Z,5.65
2022-10-23T15:01:45.532Z,6.22
2022-10-23T15:04:16.609Z,7.20
2022-10-23T15:06:45.571Z,5.88
2022-10-23T15:09:14.698Z,5.57
2022-10-23T15:11:42.937Z,4.80
2022-10-23T15:14:11.255Z,5.15
2022-10-23T15:16:40.843Z,5.38
2022-10-23T15:19:17.382Z,5.75
2022-10-23T15:21:48.439Z,5.63
2022-10-23T15:24:18.277Z,6.47
2022-10-23T15:26:46.767Z,4.93
2022-10-23T15:29:16.038Z,5.32
2022-10-23T15:31:54.978Z,6.07
2022-10-23T15:34:26.070Z,6.50
2022-10-23T15:36:56.607Z,7.75
2022-10-23T15:39:28.325Z,6.30
2022-10-23T15:41:57.368Z,5.35
2022-10-23T15:44:28.465Z,5.50
2022-10-23T15:46:57.605Z,5.82
2022-10-23T15:49:28.834Z,7.28
2022-10-23T15:51:57.463Z,6.38
2022-10-23T15:54:28.146Z,8.82
2022-10-23T15:56:58.889Z,9.32
2022-10-23T15:59:27.144Z,6.78
2022-10-23T16:01:55.660Z,5.93
2022-10-23T16:04:25.125Z,4.95
2022-10-23T16:06:53.282Z,5.88
2022-10-23T16:09:21.442Z,6.50
2022-10-23T16:11:49.748Z,6.85
2022-10-23T16:14:18.217Z,5.72
2022-10-23T16:16:46.423Z,7.22
2022-10-23T16:19:14.955Z,6.10
2022-10-23T16:21:43.458Z,6.43
2022-10-23T16:24:11.924Z,6.15
2022-10-23T16:26:40.657Z,5.68
2022-10-23T16:29:09.938Z,5.45
2022-10-23T16:31:38.349Z,7.03
2022-10-23T16:34:07.050Z,5.45
2022-10-23T16:36:35.660Z,6.38
2022-10-23T16:39:26.649Z,5.73
2022-10-23T16:42:13.029Z,6.15
2022-10-23T16:45:05.468Z,38.10
2022-10-23T16:47:34.221Z,75.07
2022-10-23T16:50:02.258Z,32.72
2022-10-23T16:52:30.549Z,16.35
2022-10-23T16:54:58.814Z,81.93
2022-10-23T16:57:27.203Z,40.08
2022-10-23T16:59:56.125Z,10.25
2022-10-23T17:02:24.511Z,15.48
2022-10-23T17:04:52.698Z,35.50
2022-10-23T17:09:54.100Z,5.60
2022-10-23T17:12:22.261Z,8.77
2022-10-23T17:14:50.424Z,9.15
2022-10-23T17:17:18.576Z,4.95
2022-10-23T17:19:47.068Z,5.47
2022-10-23T17:22:15.859Z,4.28
2022-10-23T17:24:48.776Z,5.18
2022-10-23T17:27:20.453Z,6.05
2022-10-23T17:29:50.921Z,6.22
2022-10-23T17:32:19.095Z,7.18
2022-10-23T17:34:47.173Z,5.78
2022-10-23T17:37:15.507Z,6.85
2022-10-23T17:39:44.070Z,5.10
2022-10-23T17:42:12.361Z,5.57
2022-10-23T17:44:40.657Z,4.68
2022-10-23T17:47:08.840Z,5.68
2022-10-23T17:49:36.986Z,5.45
2022-10-23T17:52:05.435Z,5.88
2022-10-23T17:54:33.691Z,7.28
2022-10-23T17:57:01.967Z,6.65
2022-10-23T17:59:30.578Z,6.00
2022-10-23T18:01:59.028Z,7.07
2022-10-23T18:04:27.356Z,7.05
2022-10-23T18:06:55.726Z,5.78
2022-10-23T18:09:24.495Z,5.57
2022-10-23T18:11:52.915Z,6.95
2022-10-23T18:14:27.252Z,7.13
2022-10-23T18:16:57.896Z,6.80
2022-10-23T18:19:26.612Z,11.20
2022-10-23T18:21:54.764Z,31.60
2022-10-23T18:24:23.491Z,45.38
2022-10-23T18:26:51.743Z,19.33
2022-10-23T18:29:20.515Z,41.72
2022-10-23T18:31:48.957Z,26.60
2022-10-23T18:34:23.283Z,12.88
2022-10-23T18:36:53.528Z,40.10
2022-10-23T18:39:24.726Z,42.25
2022-10-23T18:41:55.459Z,38.47
2022-10-23T18:44:24.847Z,27.85
2022-10-23T18:46:53.387Z,18.65
2022-10-23T18:49:21.754Z,10.70
2022-10-23T18:51:51.345Z,25.80
2022-10-23T18:54:21.599Z,22.75
2022-10-23T18:56:50.312Z,12.10
2022-10-23T18:59:20.512Z,43.28
2022-10-23T19:01:50.052Z,46.88
2022-10-23T19:04:18.552Z,44.05
2022-10-23T19:06:49.636Z,60.13
2022-10-23T19:09:18.463Z,28.77
2022-10-23T19:11:46.918Z,16.15
2022-10-23T19:14:15.422Z,25.42
2022-10-23T19:17:02.220Z,35.45
2022-10-23T19:19:38.024Z,34.78
2022-10-23T19:22:06.349Z,32.85
2022-10-23T19:24:58.330Z,29.67
2022-10-23T19:27:27.838Z,31.30
2022-10-23T19:29:57.019Z,32.47
2022-10-23T19:32:25.148Z,26.45
2022-10-23T19:34:53.369Z,41.97
2022-10-23T19:37:21.764Z,21.08
2022-10-23T19:39:49.867Z,31.45
2022-10-23T19:42:18.033Z,36.05
2022-10-23T19:44:46.345Z,36.85
2022-10-23T19:47:14.663Z,14.77
2022-10-23T19:49:42.981Z,25.80
2022-10-23T19:52:11.038Z,32.72
2022-10-23T19:54:39.465Z,36.42
2022-10-23T19:57:07.673Z,27.35
2022-10-23T19:59:35.975Z,12.40
2022-10-23T20:02:04.461Z,14.15
2022-10-23T20:04:33.287Z,14.68
2022-10-23T20:07:01.840Z,16.02
2022-10-23T20:09:31.161Z,6.80
2022-10-23T20:11:59.337Z,7.68
2022-10-23T20:14:28.110Z,7.63
2022-10-23T20:16:56.505Z,9.43
2022-10-23T20:19:24.581Z,5.70
2022-10-23T20:21:52.849Z,8.23
2022-10-23T20:24:22.339Z,8.02
2022-10-23T20:26:53.750Z,6.40
2022-10-23T20:29:23.228Z,7.38
2022-10-23T20:31:52.128Z,6.55
2022-10-23T20:34:20.560Z,8.35
2022-10-23T20:36:50.272Z,6.78
2022-10-23T20:39:22.236Z,6.45
2022-10-23T20:41:50.610Z,6.50
2022-10-23T20:44:19.461Z,7.38
2022-10-23T20:46:48.339Z,6.57
2022-10-23T20:49:17.758Z,5.93
2022-10-23T20:51:46.296Z,7.72
2022-10-23T20:54:14.605Z,5.10
2022-10-23T20:56:43.309Z,8.15
2022-10-23T20:59:14.063Z,8.02
2022-10-23T21:01:45.231Z,8.05
2022-10-23T21:04:14.693Z,6.05
2022-10-23T21:06:57.694Z,6.85
2022-10-23T21:09:31.839Z,7.40
2022-10-23T21:11:59.955Z,6.45
2022-10-23T21:14:28.295Z,6.40
2022-10-23T21:16:56.711Z,6.75
2022-10-23T21:19:27.591Z,12.52
2022-10-23T21:21:56.067Z,25.30
2022-10-23T21:24:24.252Z,11.90
2022-10-23T21:26:52.446Z,10.18
2022-10-23T21:29:20.917Z,16.10
2022-10-23T21:32:07.198Z,7.38
2022-10-23T21:34:35.570Z,8.63
2022-10-23T21:37:19.122Z,8.98
2022-10-23T21:39:47.417Z,6.63
2022-10-23T21:42:15.753Z,5.95
2022-10-23T21:44:44.094Z,6.78
2022-10-23T21:47:12.298Z,7.88
2022-10-23T21:49:40.575Z,6.57
2022-10-23T21:52:08.956Z,6.72
2022-10-23T21:54:37.213Z,7.20
2022-10-23T21:57:05.557Z,5.47
2022-10-23T21:59:35.887Z,7.43
2022-10-23T22:02:05.348Z,6.00
2022-10-23T22:04:35.023Z,5.93
2022-10-23T22:07:03.387Z,8.10
2022-10-23T22:09:33.144Z,9.80
2022-10-23T22:12:02.043Z,9.68
2022-10-23T22:14:30.131Z,7.70
2022-10-23T22:16:59.247Z,7.82
2022-10-23T22:19:27.502Z,13.23
2022-10-23T22:21:55.682Z,9.95
2022-10-23T22:24:24.289Z,8.57
2022-10-23T22:26:55.114Z,9.73
2022-10-23T22:29:27.501Z,7.63
2022-10-23T22:31:56.447Z,7.55
2022-10-23T22:37:18.718Z,9.57
2022-10-23T22:39:46.925Z,9.60
2022-10-23T22:42:15.229Z,9.18
2022-10-23T22:44:43.684Z,7.93
2022-10-23T22:47:12.122Z,8.73
2022-10-23T22:49:40.354Z,7.07
2022-10-23T22:52:08.487Z,7.45
2022-10-23T22:54:36.835Z,12.15
2022-10-23T22:57:05.192Z,11.18
2022-10-23T22:59:33.684Z,11.98
2022-10-23T23:02:02.026Z,10.73
2022-10-23T23:04:37.713Z,10.02
2022-10-23T23:07:11.446Z,10.77
2022-10-23T23:09:44.159Z,12.50
2022-10-23T23:12:14.333Z,16.60
2022-10-23T23:14:43.756Z,14.98
2022-10-23T23:17:12.832Z,13.70
2022-10-23T23:19:41.015Z,14.80
2022-10-23T23:22:09.402Z,8.70
2022-10-23T23:24:37.618Z,9.40
2022-10-23T23:27:05.983Z,9.68
2022-10-23T23:29:34.287Z,8.07
2022-10-23T23:32:02.385Z,6.85
2022-10-23T23:34:30.734Z,6.38
2022-10-23T23:36:59.279Z,8.80
2022-10-23T23:39:27.416Z,13.07
2022-10-23T23:41:55.687Z,14.50
2022-10-23T23:44:23.984Z,17.25
2022-10-23T23:46:52.050Z,7.72
2022-10-23T23:49:20.459Z,6.63
2022-10-23T23:51:48.730Z,8.63
2022-10-23T23:54:17.192Z,9.35
2022-10-23T23:56:45.663Z,8.60
2022-10-23T23:59:13.979Z,10.77
